createdAt,value
2022-08-25T00:01:52.237Z,9.48
2022-08-25T00:04:22.689Z,9.41
2022-08-25T00:06:51.070Z,9.13
2022-08-25T00:09:21.518Z,9.39
2022-08-25T00:11:51.010Z,9.37
2022-08-25T00:14:21.948Z,9.39
2022-08-25T00:16:50.480Z,9.39
2022-08-25T00:19:23.025Z,9.20
2022-08-25T00:21:51.604Z,9.22
2022-08-25T00:24:21.633Z,9.37
2022-08-25T00:26:52.378Z,9.38
2022-08-25T00:29:21.067Z,9.32
2022-08-25T00:31:49.181Z,9.27
2022-08-25T00:34:20.101Z,9.14
2022-08-25T00:36:51.812Z,8.87
2022-08-25T00:39:22.034Z,9.19
2022-08-25T00:41:52.355Z,9.19
2022-08-25T00:44:21.036Z,9.03
2022-08-25T00:46:52.094Z,9.21
2022-08-25T00:49:28.788Z,9.12
2022-08-25T00:52:02.905Z,9.15
2022-08-25T00:54:34.899Z,9.12
2022-08-25T00:57:05.388Z,8.93
2022-08-25T00:59:33.981Z,9.11
2022-08-25T01:02:02.543Z,9.05
2022-08-25T01:04:30.829Z,9.03
2022-08-25T01:07:01.777Z,8.97
2022-08-25T01:09:32.642Z,9.00
2022-08-25T01:12:00.799Z,9.05
2022-08-25T01:14:31.614Z,9.03
2022-08-25T01:17:00.073Z,8.67
2022-08-25T01:19:29.790Z,8.95
2022-08-25T01:21:59.790Z,8.95
2022-08-25T01:24:39.908Z,8.88
2022-08-25T01:27:09.313Z,8.84
2022-08-25T01:29:37.956Z,8.83
2022-08-25T01:32:08.347Z,8.86
2022-08-25T01:34:38.477Z,8.62
2022-08-25T01:37:08.488Z,8.83
2022-08-25T01:39:41.856Z,8.81
2022-08-25T01:42:20.533Z,8.79
2022-08-25T01:44:49.098Z,8.79
2022-08-25T01:47:17.358Z,8.75
2022-08-25T01:49:53.243Z,8.62
2022-08-25T01:52:46.666Z,8.52
2022-08-25T01:55:20.226Z,8.56
2022-08-25T01:57:48.351Z,8.51
2022-08-25T02:00:18.700Z,8.52
2022-08-25T02:02:47.084Z,8.58
2022-08-25T02:05:23.562Z,8.35
2022-08-25T02:07:53.825Z,8.60
2022-08-25T02:10:22.484Z,8.56
2022-08-25T02:12:51.807Z,8.36
2022-08-25T02:15:22.688Z,8.48
2022-08-25T02:17:50.814Z,8.44
2022-08-25T02:20:19.175Z,8.26
2022-08-25T02:22:53.124Z,8.43
2022-08-25T02:25:26.428Z,8.46
2022-08-25T02:27:54.646Z,8.21
2022-08-25T02:30:22.739Z,8.43
2022-08-25T02:32:51.217Z,8.45
2022-08-25T02:35:19.998Z,8.35
2022-08-25T02:37:48.008Z,8.43
2022-08-25T02:40:17.277Z,8.30
2022-08-25T02:42:46.736Z,8.32
2022-08-25T02:45:15.047Z,8.30
2022-08-25T02:47:43.679Z,8.34
2022-08-25T02:50:12.527Z,8.34
2022-08-25T02:52:41.326Z,8.31
2022-08-25T02:55:14.368Z,8.16
2022-08-25T02:57:43.102Z,8.22
2022-08-25T03:00:15.477Z,8.24
2022-08-25T03:02:44.074Z,8.20
2022-08-25T03:05:14.259Z,8.23
2022-08-25T03:07:42.497Z,8.21
2022-08-25T03:10:13.854Z,8.18
2022-08-25T03:12:42.672Z,8.11
2022-08-25T03:15:16.888Z,8.21
2022-08-25T03:17:45.910Z,8.23
2022-08-25T03:20:15.453Z,8.22
2022-08-25T03:22:43.671Z,8.24
2022-08-25T03:25:29.660Z,8.23
2022-08-25T03:27:58.679Z,8.17
2022-08-25T03:30:29.540Z,8.16
2022-08-25T03:32:57.677Z,7.97
2022-08-25T03:35:25.771Z,8.22
2022-08-25T03:37:57.159Z,8.04
2022-08-25T03:40:25.567Z,8.08
2022-08-25T03:42:55.072Z,8.19
2022-08-25T03:45:23.938Z,8.21
2022-08-25T03:47:54.213Z,8.17
2022-08-25T03:50:26.251Z,8.21
2022-08-25T03:52:56.605Z,8.26
2022-08-25T03:55:26.502Z,8.12
2022-08-25T03:57:56.104Z,8.12
2022-08-25T04:00:24.892Z,8.36
2022-08-25T04:02:54.617Z,8.31
2022-08-25T04:05:22.793Z,7.98
2022-08-25T04:07:54.970Z,8.26
2022-08-25T04:10:23.396Z,8.09
2022-08-25T04:12:56.419Z,8.36
2022-08-25T04:15:28.533Z,8.44
2022-08-25T04:18:00.039Z,8.37
2022-08-25T04:20:28.226Z,8.56
2022-08-25T04:22:56.698Z,8.37
2022-08-25T04:25:24.779Z,8.40
2022-08-25T04:27:52.716Z,8.70
2022-08-25T04:30:21.316Z,8.72
2022-08-25T04:32:49.679Z,8.80
2022-08-25T04:35:19.394Z,8.86
2022-08-25T04:37:48.965Z,8.70
2022-08-25T04:40:17.086Z,8.73
2022-08-25T04:43:05.068Z,8.88
2022-08-25T04:45:33.296Z,8.89
2022-08-25T04:48:01.675Z,9.20
2022-08-25T04:50:31.158Z,9.15
2022-08-25T04:52:59.173Z,9.44
2022-08-25T04:55:27.300Z,9.58
2022-08-25T04:57:55.733Z,9.62
2022-08-25T05:00:24.000Z,9.73
2022-08-25T05:02:52.061Z,9.84
2022-08-25T05:05:19.994Z,9.90
2022-08-25T05:07:49.571Z,9.97
2022-08-25T05:10:17.780Z,9.90
2022-08-25T05:12:45.756Z,10.34
2022-08-25T05:15:27.870Z,10.49
2022-08-25T05:17:56.419Z,10.59
2022-08-25T05:20:25.143Z,10.94
2022-08-25T05:22:54.610Z,11.19
2022-08-25T05:25:22.803Z,11.22
2022-08-25T05:27:51.511Z,11.83
2022-08-25T05:30:19.811Z,12.21
2022-08-25T05:32:47.881Z,12.50
2022-08-25T05:35:16.608Z,12.89
2022-08-25T05:37:44.780Z,13.40
2022-08-25T05:40:17.755Z,13.51
2022-08-25T05:42:48.319Z,14.13
2022-08-25T05:45:20.647Z,14.48
2022-08-25T05:47:49.238Z,14.95
2022-08-25T05:50:18.110Z,15.36
2022-08-25T05:52:47.094Z,15.93
2022-08-25T05:55:16.843Z,16.27
2022-08-25T05:57:44.982Z,16.48
2022-08-25T06:00:16.066Z,16.74
2022-08-25T06:02:46.444Z,16.80
2022-08-25T06:05:17.640Z,17.11
2022-08-25T06:07:46.506Z,17.14
2022-08-25T06:10:16.790Z,17.57
2022-08-25T06:12:46.925Z,17.78
2022-08-25T06:15:16.602Z,18.10
2022-08-25T06:17:44.703Z,18.18
2022-08-25T06:20:17.073Z,18.36
2022-08-25T06:22:46.383Z,18.39
2022-08-25T06:25:18.922Z,18.38
2022-08-25T06:27:47.502Z,18.37
2022-08-25T06:30:24.410Z,18.52
2022-08-25T06:32:57.204Z,18.50
2022-08-25T06:35:26.108Z,18.53
2022-08-25T06:37:55.716Z,18.66
2022-08-25T06:40:26.340Z,18.69
2022-08-25T06:42:54.499Z,18.76
2022-08-25T06:45:22.575Z,18.80
2022-08-25T06:47:51.035Z,18.91
2022-08-25T06:50:19.306Z,18.95
2022-08-25T06:52:47.616Z,19.12
2022-08-25T06:55:15.998Z,19.19
2022-08-25T06:57:45.734Z,19.28
2022-08-25T07:00:14.368Z,19.43
2022-08-25T07:02:42.447Z,19.55
2022-08-25T07:05:16.999Z,19.61
2022-08-25T07:07:54.965Z,19.74
2022-08-25T07:10:23.023Z,19.76
2022-08-25T07:12:53.059Z,20.05
2022-08-25T07:15:21.412Z,20.15
2022-08-25T07:17:50.061Z,20.12
2022-08-25T07:20:19.531Z,20.35
2022-08-25T07:22:48.102Z,20.52
2022-08-25T07:25:17.894Z,20.53
2022-08-25T07:27:46.686Z,20.78
2022-08-25T07:30:17.696Z,20.89
2022-08-25T07:32:45.933Z,21.03
2022-08-25T07:35:16.049Z,21.23
2022-08-25T07:37:52.123Z,21.31
2022-08-25T07:40:24.999Z,21.50
2022-08-25T07:42:55.598Z,21.47
2022-08-25T07:45:30.762Z,21.56
2022-08-25T07:48:00.706Z,21.47
2022-08-25T07:50:31.341Z,21.67
2022-08-25T07:53:00.319Z,21.84
2022-08-25T07:55:30.481Z,22.03
2022-08-25T07:57:59.817Z,22.29
2022-08-25T08:00:30.395Z,22.22
2022-08-25T08:02:59.035Z,22.22
2022-08-25T08:05:28.425Z,22.18
2022-08-25T08:07:57.975Z,22.56
2022-08-25T08:10:48.112Z,22.51
2022-08-25T08:13:18.444Z,22.75
2022-08-25T08:15:48.706Z,22.84
2022-08-25T08:18:18.480Z,23.31
2022-08-25T08:20:47.365Z,23.57
2022-08-25T08:23:18.350Z,23.91
2022-08-25T08:25:46.698Z,24.07
2022-08-25T08:28:14.853Z,23.92
2022-08-25T08:31:02.143Z,23.90
2022-08-25T08:33:31.783Z,23.85
2022-08-25T08:36:11.920Z,24.09
2022-08-25T08:38:42.499Z,24.11
2022-08-25T08:42:00.648Z,24.15
2022-08-25T08:44:34.507Z,24.26
2022-08-25T08:47:09.060Z,24.31
2022-08-25T08:49:48.579Z,24.43
2022-08-25T08:52:20.557Z,24.17
2022-08-25T08:55:05.563Z,24.46
2022-08-25T08:57:42.443Z,24.67
2022-08-25T09:00:13.101Z,25.00
2022-08-25T09:02:51.418Z,25.12
2022-08-25T09:05:25.891Z,24.86
2022-08-25T09:07:57.285Z,25.02
2022-08-25T09:10:32.084Z,24.89
2022-08-25T09:13:12.263Z,25.24
2022-08-25T09:16:10.247Z,24.95
2022-08-25T09:18:57.644Z,24.99
2022-08-25T09:21:34.747Z,25.39
2022-08-25T09:24:20.185Z,25.86
2022-08-25T09:27:02.119Z,26.05
2022-08-25T09:29:54.635Z,26.72
2022-08-25T09:32:24.028Z,27.72
2022-08-25T09:34:55.595Z,28.13
2022-08-25T09:37:27.226Z,28.13
2022-08-25T09:39:59.118Z,28.36
2022-08-25T09:42:49.878Z,29.23
2022-08-25T09:45:31.194Z,29.37
2022-08-25T09:47:59.445Z,29.56
2022-08-25T09:50:35.091Z,30.31
2022-08-25T09:53:18.547Z,31.29
2022-08-25T09:55:59.983Z,32.42
2022-08-25T09:58:28.914Z,33.28
2022-08-25T10:01:14.219Z,34.01
2022-08-25T10:03:56.956Z,35.31
2022-08-25T10:06:26.504Z,35.88
2022-08-25T10:08:59.658Z,35.82
2022-08-25T10:11:40.104Z,35.99
2022-08-25T10:14:18.597Z,36.46
2022-08-25T10:16:47.887Z,37.21
2022-08-25T10:19:26.075Z,37.26
2022-08-25T10:22:08.189Z,37.28
2022-08-25T10:24:45.256Z,37.49
2022-08-25T10:27:24.116Z,37.98
2022-08-25T10:30:12.746Z,38.75
2022-08-25T10:33:13.089Z,38.65
2022-08-25T10:35:53.951Z,38.29
2022-08-25T10:38:36.260Z,38.42
2022-08-25T10:41:22.506Z,38.56
2022-08-25T10:43:58.659Z,39.89
2022-08-25T10:46:36.713Z,40.95
2022-08-25T10:49:08.522Z,39.89
2022-08-25T10:51:51.479Z,39.17
2022-08-25T10:54:33.811Z,38.98
2022-08-25T10:57:15.215Z,38.62
2022-08-25T10:59:56.426Z,38.70
2022-08-25T11:03:08.814Z,37.78
2022-08-25T11:05:42.221Z,38.10
2022-08-25T11:08:15.958Z,37.37
2022-08-25T11:10:53.000Z,37.72
2022-08-25T11:13:30.666Z,37.05
2022-08-25T11:16:17.177Z,37.14
2022-08-25T11:18:56.817Z,36.02
2022-08-25T11:21:32.807Z,35.36
2022-08-25T11:24:11.807Z,35.11
2022-08-25T11:26:46.240Z,35.28
2022-08-25T11:29:19.694Z,35.50
2022-08-25T11:31:54.179Z,34.44
2022-08-25T11:34:23.739Z,33.23
2022-08-25T11:36:57.564Z,33.56
2022-08-25T11:39:47.649Z,33.86
2022-08-25T11:42:30.040Z,33.64
2022-08-25T11:45:09.983Z,33.38
2022-08-25T11:48:05.508Z,33.23
2022-08-25T11:50:37.565Z,32.98
2022-08-25T11:53:26.617Z,32.20
2022-08-25T11:55:58.906Z,31.17
2022-08-25T11:58:51.976Z,31.31
2022-08-25T12:02:10.972Z,30.80
2022-08-25T12:04:44.699Z,30.46
2022-08-25T12:07:28.057Z,30.11
2022-08-25T12:10:24.217Z,29.84
2022-08-25T12:13:24.449Z,29.47
2022-08-25T12:16:03.582Z,29.12
2022-08-25T12:18:45.539Z,28.59
2022-08-25T12:21:29.365Z,28.52
2022-08-25T12:24:14.051Z,27.98
2022-08-25T12:26:50.223Z,27.83
2022-08-25T12:29:28.800Z,27.98
2022-08-25T12:32:18.908Z,28.05
2022-08-25T12:35:10.632Z,28.07
2022-08-25T12:38:06.629Z,27.83
2022-08-25T12:40:39.263Z,27.45
2022-08-25T12:43:26.703Z,27.14
2022-08-25T12:46:15.938Z,27.34
2022-08-25T12:49:00.449Z,27.22
2022-08-25T12:51:41.005Z,27.02
2022-08-25T12:54:23.511Z,26.73
2022-08-25T12:56:56.601Z,26.91
2022-08-25T12:59:33.180Z,26.76
2022-08-25T13:02:49.673Z,27.10
2022-08-25T13:05:57.268Z,27.18
2022-08-25T13:08:46.792Z,27.39
2022-08-25T13:11:20.496Z,27.40
2022-08-25T13:13:55.870Z,27.56
2022-08-25T13:16:29.727Z,27.61
2022-08-25T13:19:01.552Z,27.63
2022-08-25T13:21:32.795Z,27.54
2022-08-25T13:24:06.648Z,27.56
2022-08-25T13:26:48.609Z,27.38
2022-08-25T13:29:21.385Z,27.25
2022-08-25T13:32:12.689Z,27.43
2022-08-25T13:34:43.186Z,27.43
2022-08-25T13:37:36.686Z,28.00
2022-08-25T13:40:17.818Z,28.13
2022-08-25T13:42:55.601Z,28.16
2022-08-25T13:45:26.968Z,28.21
2022-08-25T13:47:58.533Z,28.03
2022-08-25T13:50:36.743Z,27.84
2022-08-25T13:53:07.844Z,28.53
2022-08-25T13:55:51.700Z,28.81
2022-08-25T13:58:39.146Z,28.68
2022-08-25T14:01:48.784Z,29.30
2022-08-25T14:04:37.267Z,29.12
2022-08-25T14:07:19.481Z,30.27
2022-08-25T14:09:52.341Z,31.35
2022-08-25T14:12:35.151Z,32.07
2022-08-25T14:15:08.569Z,33.21
2022-08-25T14:17:40.076Z,33.26
2022-08-25T14:20:18.776Z,33.41
2022-08-25T14:22:47.048Z,33.75
2022-08-25T14:25:16.010Z,34.38
2022-08-25T14:30:37.722Z,36.83
2022-08-25T14:33:09.048Z,36.74
2022-08-25T14:35:38.136Z,37.64
2022-08-25T14:38:10.846Z,37.92
2022-08-25T14:40:39.832Z,37.41
2022-08-25T14:43:09.782Z,37.72
2022-08-25T14:45:46.786Z,37.79
2022-08-25T14:48:26.014Z,38.12
2022-08-25T14:50:55.332Z,38.58
2022-08-25T14:53:23.362Z,38.49
2022-08-25T14:55:53.956Z,38.84
2022-08-25T14:58:27.461Z,38.51
2022-08-25T15:00:57.528Z,38.30
2022-08-25T15:03:31.816Z,38.71
2022-08-25T15:06:01.043Z,39.21
2022-08-25T15:08:47.971Z,38.56
2022-08-25T15:11:18.348Z,38.91
2022-08-25T15:13:49.787Z,38.41
2022-08-25T15:16:24.980Z,38.16
2022-08-25T15:19:03.206Z,38.24
2022-08-25T15:21:35.580Z,39.08
2022-08-25T15:24:04.218Z,38.03
2022-08-25T15:26:35.416Z,37.39
2022-08-25T15:29:04.845Z,37.18
2022-08-25T15:31:34.179Z,35.51
2022-08-25T15:34:02.272Z,33.36
2022-08-25T15:36:30.304Z,31.24
2022-08-25T15:38:59.021Z,29.76
2022-08-25T15:41:27.876Z,28.83
2022-08-25T15:43:56.674Z,27.83
2022-08-25T15:46:27.444Z,27.32
2022-08-25T15:48:57.112Z,26.52
2022-08-25T15:51:25.596Z,26.76
2022-08-25T15:53:53.948Z,27.24
2022-08-25T15:56:26.724Z,28.46
2022-08-25T15:58:56.770Z,29.71
2022-08-25T16:01:27.663Z,30.57
2022-08-25T16:04:00.583Z,29.75
2022-08-25T16:06:28.593Z,28.81
2022-08-25T16:08:56.996Z,27.78
2022-08-25T16:11:28.004Z,27.10
2022-08-25T16:13:58.954Z,26.65
2022-08-25T16:16:29.454Z,26.01
2022-08-25T16:18:59.518Z,25.26
2022-08-25T16:21:30.169Z,24.49
2022-08-25T16:24:05.497Z,24.24
2022-08-25T16:26:36.524Z,23.90
2022-08-25T16:29:06.471Z,23.52
2022-08-25T16:31:37.713Z,23.25
2022-08-25T16:34:07.408Z,23.03
2022-08-25T16:36:35.480Z,22.90
2022-08-25T16:39:03.426Z,22.73
2022-08-25T16:41:41.390Z,22.52
2022-08-25T16:44:11.163Z,22.16
2022-08-25T16:46:40.690Z,22.35
2022-08-25T16:49:11.210Z,22.17
2022-08-25T16:51:40.444Z,22.08
2022-08-25T16:54:36.423Z,22.06
2022-08-25T16:57:04.408Z,22.01
2022-08-25T16:59:32.475Z,21.83
2022-08-25T17:02:00.738Z,21.45
2022-08-25T17:04:34.716Z,21.50
2022-08-25T17:07:02.659Z,21.61
2022-08-25T17:09:30.764Z,21.48
2022-08-25T17:11:59.049Z,21.40
2022-08-25T17:14:27.023Z,21.28
2022-08-25T17:16:55.569Z,21.14
2022-08-25T17:19:25.105Z,21.02
2022-08-25T17:21:55.176Z,20.87
2022-08-25T17:24:29.623Z,20.76
2022-08-25T17:27:00.166Z,20.66
2022-08-25T17:29:29.864Z,20.50
2022-08-25T17:31:58.612Z,20.50
2022-08-25T17:34:28.596Z,20.38
2022-08-25T17:36:59.461Z,20.13
2022-08-25T17:39:28.380Z,20.10
2022-08-25T17:41:56.449Z,20.00
2022-08-25T17:44:25.420Z,19.85
2022-08-25T17:46:53.679Z,19.68
2022-08-25T17:49:22.588Z,19.73
2022-08-25T17:51:51.722Z,19.56
2022-08-25T17:54:21.807Z,19.24
2022-08-25T17:56:49.750Z,19.47
2022-08-25T17:59:18.912Z,19.40
2022-08-25T18:01:50.729Z,19.02
2022-08-25T18:04:23.796Z,18.91
2022-08-25T18:06:55.711Z,19.01
2022-08-25T18:09:25.137Z,18.88
2022-08-25T18:11:53.760Z,18.79
2022-08-25T18:14:25.224Z,18.33
2022-08-25T18:16:57.086Z,18.48
2022-08-25T18:19:25.102Z,18.18
2022-08-25T18:21:53.388Z,18.13
2022-08-25T18:24:26.167Z,17.87
2022-08-25T18:26:57.287Z,17.87
2022-08-25T18:29:26.233Z,17.58
2022-08-25T18:31:59.738Z,17.46
2022-08-25T18:34:30.310Z,17.31
2022-08-25T18:37:19.231Z,16.79
2022-08-25T18:40:04.912Z,16.78
2022-08-25T18:42:36.464Z,16.70
2022-08-25T18:45:05.940Z,16.42
2022-08-25T18:47:34.426Z,16.44
2022-08-25T18:50:05.068Z,16.29
2022-08-25T18:52:35.408Z,16.14
2022-08-25T18:55:03.845Z,15.57
2022-08-25T18:57:32.903Z,15.52
2022-08-25T19:00:02.962Z,15.69
2022-08-25T19:02:31.728Z,15.64
2022-08-25T19:05:04.768Z,15.44
2022-08-25T19:07:35.808Z,15.36
2022-08-25T19:10:09.326Z,15.26
2022-08-25T19:12:37.569Z,14.99
2022-08-25T19:15:07.767Z,14.78
2022-08-25T19:17:37.307Z,14.72
2022-08-25T19:20:11.027Z,14.83
2022-08-25T19:22:41.979Z,14.65
2022-08-25T19:25:11.243Z,14.57
2022-08-25T19:27:40.526Z,14.53
2022-08-25T19:30:14.029Z,14.47
2022-08-25T19:32:44.906Z,14.22
2022-08-25T19:35:19.841Z,14.28
2022-08-25T19:37:48.480Z,14.19
2022-08-25T19:40:20.035Z,14.19
2022-08-25T19:42:54.692Z,14.13
2022-08-25T19:45:25.053Z,13.96
2022-08-25T19:47:54.266Z,13.93
2022-08-25T19:50:23.270Z,13.82
2022-08-25T19:52:51.672Z,13.74
2022-08-25T19:55:19.854Z,13.65
2022-08-25T19:57:48.306Z,13.57
2022-08-25T20:00:22.098Z,13.47
2022-08-25T20:02:52.135Z,13.38
2022-08-25T20:05:23.607Z,13.16
2022-08-25T20:07:55.265Z,12.91
2022-08-25T20:10:24.737Z,12.99
2022-08-25T20:12:55.681Z,12.98
2022-08-25T20:15:24.044Z,13.09
2022-08-25T20:17:56.616Z,12.86
2022-08-25T20:20:25.755Z,12.94
2022-08-25T20:23:14.860Z,12.91
2022-08-25T20:25:47.433Z,12.85
2022-08-25T20:28:18.666Z,12.58
2022-08-25T20:30:47.473Z,12.55
2022-08-25T20:33:22.857Z,12.41
2022-08-25T20:35:53.372Z,12.34
2022-08-25T20:38:21.449Z,12.48
2022-08-25T20:40:49.578Z,12.42
2022-08-25T20:43:17.945Z,12.44
2022-08-25T20:45:49.087Z,12.32
2022-08-25T20:48:19.508Z,12.35
2022-08-25T20:50:54.320Z,12.32
2022-08-25T20:53:27.173Z,12.23
2022-08-25T20:55:55.284Z,12.20
2022-08-25T20:58:23.294Z,12.09
2022-08-25T21:00:51.740Z,12.02
2022-08-25T21:03:22.116Z,12.06
2022-08-25T21:05:54.031Z,12.06
2022-08-25T21:08:23.825Z,11.85
2022-08-25T21:10:53.767Z,11.99
2022-08-25T21:13:25.038Z,11.99
2022-08-25T21:15:55.331Z,11.78
2022-08-25T21:18:27.600Z,11.91
2022-08-25T21:21:05.982Z,11.86
2022-08-25T21:23:34.996Z,11.53
2022-08-25T21:26:03.058Z,11.72
2022-08-25T21:28:32.430Z,11.69
2022-08-25T21:31:00.715Z,11.66
2022-08-25T21:33:30.131Z,11.61
2022-08-25T21:35:59.168Z,11.55
2022-08-25T21:38:29.147Z,11.59
2022-08-25T21:40:57.975Z,11.49
2022-08-25T21:43:26.061Z,11.45
2022-08-25T21:45:54.264Z,11.42
2022-08-25T21:48:24.234Z,11.37
2022-08-25T21:51:04.909Z,11.13
2022-08-25T21:53:35.593Z,11.25
2022-08-25T21:56:05.379Z,11.07
2022-08-25T21:58:34.637Z,10.81
2022-08-25T22:01:10.888Z,11.13
2022-08-25T22:03:41.182Z,10.95
2022-08-25T22:06:12.381Z,10.98
2022-08-25T22:08:41.729Z,11.05
2022-08-25T22:11:11.489Z,10.93
2022-08-25T22:13:41.192Z,10.92
2022-08-25T22:16:11.886Z,10.76
2022-08-25T22:18:42.208Z,10.83
2022-08-25T22:21:11.522Z,10.90
2022-08-25T22:23:44.563Z,10.82
2022-08-25T22:26:15.470Z,10.81
2022-08-25T22:28:43.640Z,10.78
2022-08-25T22:31:14.916Z,10.70
2022-08-25T22:33:50.028Z,10.73
2022-08-25T22:36:25.048Z,10.41
2022-08-25T22:38:55.851Z,10.67
2022-08-25T22:41:25.957Z,10.54
2022-08-25T22:43:56.970Z,10.62
2022-08-25T22:46:29.050Z,10.54
2022-08-25T22:48:58.026Z,10.46
2022-08-25T22:51:33.994Z,10.29
2022-08-25T22:54:02.461Z,10.16
2022-08-25T22:56:34.800Z,10.31
2022-08-25T22:59:12.632Z,10.38
2022-08-25T23:01:41.726Z,10.17
2022-08-25T23:04:10.815Z,10.27
2022-08-25T23:06:40.769Z,10.06
2022-08-25T23:09:11.440Z,10.00
2022-08-25T23:11:39.991Z,10.05
2022-08-25T23:14:10.473Z,10.20
2022-08-25T23:16:38.795Z,10.17
2022-08-25T23:19:06.968Z,10.15
2022-08-25T23:21:53.457Z,10.07
2022-08-25T23:24:29.449Z,10.10
2022-08-25T23:26:58.486Z,10.08
2022-08-25T23:29:27.836Z,10.06
2022-08-25T23:31:56.715Z,9.94
2022-08-25T23:34:25.454Z,9.91
2022-08-25T23:36:53.682Z,10.00
2022-08-25T23:39:22.394Z,10.02
2022-08-25T23:41:53.168Z,9.87
2022-08-25T23:44:23.453Z,9.99
2022-08-25T23:46:54.079Z,9.94
2022-08-25T23:49:25.110Z,9.75
2022-08-25T23:51:56.143Z,9.86
2022-08-25T23:54:30.936Z,9.93
2022-08-25T23:57:01.642Z,9.83
2022-08-25T23:59:29.768Z,9.88
